Time;durP1;ratioP1;P1;durP2;ratioP2;P2;SDS_P1;SDS_P2;PMS_P1;PMS_P2;Temp;Humidity;BMP_temperature;BMP_pressure;BME280_temperature;BME280_humidity;BME280_pressure;Samples;Min_cycle;Max_cycle;Signal;HPM_P1;HPM_P2
2022/03/29 00:01:22;;;;;;;64.42;26.75;;;;;;;4.97;53.24;98572.20;4089263;86;21109;-84
2022/03/29 00:08:06;;;;;;;55.08;21.37;;;;;;;4.91;53.21;98555.97;4085196;86;21036;-84
2022/03/29 00:21:16;;;;;;;44.65;18.00;;;;;;;4.81;53.67;98532.06;4091276;85;21083;-84
2022/03/29 00:27:19;;;;;;;40.10;16.93;;;;;;;4.86;54.14;98520.96;4125138;84;21496;-83
2022/03/29 00:40:12;;;;;;;43.23;20.65;;;;;;;5.09;55.35;98512.44;4241715;82;21084;-84
2022/03/29 00:46:35;;;;;;;35.25;16.95;;;;;;;5.09;55.84;98489.38;4236872;82;21073;-85
2022/03/29 00:53:00;;;;;;;40.30;17.07;;;;;;;5.20;55.24;98488.30;4240139;84;20981;-85
2022/03/29 00:59:28;;;;;;;;;;;;;;;5.05;56.21;98501.28;4151287;83;21140;-84
2022/03/29 01:05:44;;;;;;;51.15;22.13;;;;;;;5.16;61.97;98510.47;4235888;82;20186;-84
2022/03/29 01:18:40;;;;;;;52.43;23.32;;;;;;;5.52;59.67;98485.17;4234691;81;21092;-85
2022/03/29 01:31:53;;;;;;;52.88;21.82;;;;;;;5.83;58.31;98496.55;4182015;84;21072;-85
2022/03/29 01:38:12;;;;;;;56.35;25.62;;;;;;;5.92;60.20;98493.08;4232990;84;21041;-85
2022/03/29 01:44:13;;;;;;;37.20;18.23;;;;;;;5.85;58.42;98487.48;4233669;82;21029;-85
2022/03/29 01:50:35;;;;;;;71.80;28.67;;;;;;;5.83;61.63;98492.47;4240059;82;21742;-85
2022/03/29 01:57:00;;;;;;;61.92;28.85;;;;;;;5.75;59.19;98469.78;4237750;83;21098;-85
2022/03/29 02:03:11;;;;;;;56.92;27.27;;;;;;;5.80;59.37;98465.99;4209013;84;21613;-85
2022/03/29 02:09:12;;;;;;;63.58;27.17;;;;;;;5.88;60.56;98465.03;4235571;82;21565;-86
2022/03/29 02:15:29;;;;;;;48.75;23.95;;;;;;;5.86;59.81;98454.52;4234324;82;21079;-84
2022/03/29 02:21:30;;;;;;;49.00;25.68;;;;;;;6.05;60.63;98457.81;4227107;82;21144;-85
2022/03/29 02:27:33;;;;;;;47.05;23.75;;;;;;;6.36;60.69;98442.69;4286483;81;21059;-85
2022/03/29 02:33:37;;;;;;;45.58;25.02;;;;;;;6.64;64.48;98447.28;4290382;81;21071;-84
2022/03/29 02:39:47;;;;;;;58.05;24.45;;;;;;;7.02;63.10;98439.00;4294885;82;21043;-86
2022/03/29 02:45:58;;;;;;;44.60;21.45;;;;;;;7.03;62.77;98455.53;4277035;81;21540;-85
2022/03/29 02:58:37;;;;;;;32.00;17.55;;;;;;;7.42;63.25;98442.55;4194740;83;21024;-86
2022/03/29 03:04:39;;;;;;;29.27;16.15;;;;;;;7.98;63.30;98434.56;4286613;81;21020;-85
2022/03/29 03:10:46;;;;;;;34.00;17.85;;;;;;;8.22;65.10;98438.73;4204249;84;22194;-85
2022/03/29 03:16:48;;;;;;;31.15;16.45;;;;;;;8.37;64.62;98427.41;4272643;82;21315;-85
2022/03/29 03:22:56;;;;;;;29.05;15.13;;;;;;;8.54;66.75;98424.88;4282959;82;21388;-85
2022/03/29 03:28:59;;;;;;;30.32;14.23;;;;;;;8.73;65.49;98412.39;4200866;84;21055;-85
2022/03/29 03:35:17;;;;;;;33.10;15.95;;;;;;;8.98;65.40;98410.66;4299044;82;21027;-86
2022/03/29 03:41:26;;;;;;;31.02;16.10;;;;;;;9.12;65.15;98404.52;4293624;82;21067;-86
2022/03/29 03:47:49;;;;;;;34.70;17.23;;;;;;;9.13;64.66;98404.13;4266295;82;21004;-86
2022/03/29 03:53:53;;;;;;;28.55;14.75;;;;;;;9.05;64.43;98396.28;4204428;84;21134;-85
2022/03/29 04:00:00;;;;;;;26.82;14.03;;;;;;;8.89;64.44;98397.92;4103475;83;61328;-85
2022/03/29 04:06:15;;;;;;;29.52;15.35;;;;;;;8.78;64.65;98379.31;4278406;81;21113;-86
2022/03/29 04:12:50;;;;;;;23.57;14.45;;;;;;;8.63;64.67;98378.97;4233323;82;21718;-85
2022/03/29 04:19:34;;;;;;;36.25;15.63;;;;;;;8.49;64.78;98373.38;4222580;82;21072;-85
2022/03/29 04:39:07;;;;;;;43.42;22.67;;;;;;;7.86;65.39;98365.89;4260603;81;22068;-85
2022/03/29 04:45:37;;;;;;;48.38;21.75;;;;;;;7.74;65.86;98372.36;4248224;81;21550;-85
2022/03/29 04:52:12;;;;;;;62.62;24.95;;;;;;;7.59;66.23;98384.81;4199318;81;21705;-86
2022/03/29 04:58:28;;;;;;;54.53;26.05;;;;;;;7.50;66.45;98384.30;4235796;81;21167;-85
2022/03/29 05:04:29;;;;;;;53.65;28.50;;;;;;;7.55;67.48;98376.58;4252475;81;21062;-86
2022/03/29 05:10:30;;;;;;;62.05;28.55;;;;;;;7.65;67.42;98368.34;4266567;81;21011;-86
2022/03/29 05:16:32;;;;;;;61.83;30.55;;;;;;;7.79;67.39;98370.67;4275101;81;21043;-85
2022/03/29 05:22:46;;;;;;;67.67;31.65;;;;;;;7.88;67.56;98373.09;4231800;82;21027;-84
2022/03/29 05:28:48;;;;;;;53.80;27.50;;;;;;;7.86;67.54;98373.46;4207384;82;21047;-85
2022/03/29 05:34:49;;;;;;;53.33;25.60;;;;;;;7.90;67.71;98382.48;4248138;81;21006;-85
2022/03/29 05:40:50;;;;;;;56.63;24.95;;;;;;;8.03;68.06;98383.02;4250917;81;20984;-85
2022/03/29 05:53:11;;;;;;;63.17;27.00;;;;;;;8.34;68.14;98378.51;4235299;81;21039;-86
2022/03/29 05:59:12;;;;;;;56.10;25.85;;;;;;;8.49;68.40;98375.34;4197292;83;21062;-85
2022/03/29 06:05:14;;;;;;;50.78;23.73;;;;;;;8.55;68.68;98376.56;4267029;81;21580;-85
2022/03/29 06:11:15;;;;;;;44.27;23.22;;;;;;;8.93;69.21;98389.16;4248949;81;21414;-85
2022/03/29 06:17:17;;;;;;;45.98;24.30;;;;;;;9.51;69.39;98393.26;4247896;81;21676;-85
2022/03/29 06:23:19;;;;;;;42.08;24.52;;;;;;;10.05;69.28;98386.88;4213653;82;21169;-86
2022/03/29 06:29:43;;;;;;;44.20;23.85;;;;;;;10.48;68.74;98383.09;4221440;82;22023;-86
2022/03/29 06:36:06;;;;;;;53.02;23.25;;;;;;;10.64;68.40;98380.78;4200675;83;21073;-86
2022/03/29 06:42:07;;;;;;;43.98;23.35;;;;;;;10.66;68.13;98384.70;4225939;82;21006;-86
2022/03/29 06:48:09;;;;;;;39.20;21.90;;;;;;;10.62;68.00;98374.91;4280480;81;21037;-86
2022/03/29 06:54:10;;;;;;;47.88;25.85;;;;;;;10.60;68.24;98403.27;4273585;81;21002;-86
2022/03/29 07:00:13;;;;;;;43.70;25.32;;;;;;;10.43;68.25;98435.48;4244237;81;21043;-87
2022/03/29 07:06:14;;;;;;;45.50;26.20;;;;;;;10.01;69.67;98437.44;4215877;82;21575;-87
2022/03/29 07:12:16;;;;;;;48.20;24.40;;;;;;;9.67;70.69;98440.20;4267703;81;21548;-86
2022/03/29 07:18:18;;;;;;;44.23;24.00;;;;;;;9.51;71.46;98435.03;4256356;81;21047;-85
2022/03/29 07:24:20;;;;;;;46.30;25.72;;;;;;;9.53;72.33;98416.32;4256749;81;21066;-85
2022/03/29 07:30:23;;;;;;;40.05;23.90;;;;;;;9.75;73.25;98411.75;4247203;81;21054;-86
2022/03/29 07:36:24;;;;;;;44.35;26.77;;;;;;;10.07;73.83;98413.26;4210245;81;21024;-85
2022/03/29 07:42:25;;;;;;;35.68;22.85;;;;;;;10.22;73.81;98409.42;4252500;81;20952;-86
2022/03/29 07:48:27;;;;;;;41.58;23.98;;;;;;;10.24;73.95;98419.41;4202803;82;21051;-85
2022/03/29 07:54:41;;;;;;;31.30;19.70;;;;;;;10.10;74.73;98428.32;4206647;82;21010;-86
2022/03/29 08:00:51;;;;;;;37.45;19.92;;;;;;;10.03;74.73;98428.28;4249564;81;21582;-86
2022/03/29 08:06:52;;;;;;;33.18;18.00;;;;;;;10.03;75.11;98426.12;4169974;84;21054;-85
2022/03/29 08:12:56;;;;;;;33.88;17.82;;;;;;;9.97;74.85;98421.62;4250139;81;21034;-86
2022/03/29 08:18:57;;;;;;;31.45;19.12;;;;;;;9.93;74.98;98397.56;4205306;82;21118;-86
2022/03/29 08:25:00;;;;;;;30.65;18.02;;;;;;;9.99;74.91;98389.19;4209127;82;21539;-86
2022/03/29 08:31:02;;;;;;;42.13;20.00;;;;;;;10.22;75.07;98389.70;4214537;84;20996;-85
2022/03/29 08:37:03;;;;;;;32.20;20.48;;;;;;;10.78;75.40;98397.21;4216530;82;21024;-87
2022/03/29 08:43:08;;;;;;;40.83;23.40;;;;;;;11.20;75.08;98394.47;4216747;82;21000;-85
2022/03/29 08:49:10;;;;;;;35.03;22.02;;;;;;;11.53;75.66;98394.60;4221690;82;21031;-87
2022/03/29 08:55:29;;;;;;;41.75;23.57;;;;;;;11.80;74.84;98389.67;4286944;81;21038;-86
2022/03/29 09:01:30;;;;;;;35.03;19.75;;;;;;;12.14;74.20;98394.82;4272867;81;21003;-86
2022/03/29 09:14:36;;;;;;;30.92;19.30;;;;;;;13.04;71.98;98385.05;4272394;81;21969;-86
2022/03/29 09:20:38;;;;;;;31.37;19.80;;;;;;;13.28;69.60;98381.28;4137697;82;33377;-86
2022/03/29 09:26:51;;;;;;;32.33;19.95;;;;;;;13.13;70.21;98371.62;4146198;84;21087;-86
2022/03/29 09:33:06;;;;;;;35.10;20.40;;;;;;;13.46;70.05;98364.62;4022746;86;22333;-87
2022/03/29 09:39:34;;;;;;;36.42;20.65;;;;;;;13.79;69.24;98361.90;4025910;86;21075;-86
2022/03/29 09:45:56;;;;;;;40.17;20.15;;;;;;;14.14;68.41;98351.81;4030949;87;21028;-86
2022/03/29 09:52:16;;;;;;;38.50;20.57;;;;;;;14.65;67.98;98347.97;4026466;87;21135;-86
2022/03/29 09:58:17;;;;;;;37.35;21.25;;;;;;;15.16;66.56;98339.23;4042563;86;21095;-85
2022/03/29 10:04:21;;;;;;;41.60;20.62;;;;;;;15.51;65.64;98330.36;4036364;85;21092;-86
2022/03/29 10:10:22;;;;;;;32.35;21.45;;;;;;;16.01;65.34;98332.11;4011538;86;21110;-86
2022/03/29 10:16:24;;;;;;;28.47;19.98;;;;;;;16.42;62.40;98315.22;3998983;87;21087;-86
2022/03/29 10:22:26;;;;;;;31.07;18.82;;;;;;;16.11;62.19;98319.48;4049209;85;21010;-86
2022/03/29 10:28:28;;;;;;;30.75;18.95;;;;;;;16.11;60.69;98313.16;4066695;84;21092;-86
2022/03/29 10:34:39;;;;;;;31.17;18.82;;;;;;;15.73;61.09;98310.61;4109692;83;21046;-86
2022/03/29 10:40:41;;;;;;;34.50;20.25;;;;;;;15.71;60.45;98301.38;4160883;84;22131;-86
2022/03/29 10:46:50;;;;;;;36.45;19.98;;;;;;;15.80;60.03;98290.58;4172305;84;21041;-86
2022/03/29 10:52:52;;;;;;;31.45;21.40;;;;;;;16.12;59.39;98287.10;4162174;84;21785;-87
2022/03/29 10:59:09;;;;;;;28.73;18.52;;;;;;;15.90;57.56;98280.48;4158700;84;21112;-86
2022/03/29 11:05:12;;;;;;;27.73;19.45;;;;;;;15.76;58.52;98268.37;4165797;84;21011;-86
2022/03/29 11:11:37;;;;;;;25.35;17.95;;;;;;;15.66;58.06;98260.48;4160702;84;21093;-86
2022/03/29 11:17:40;;;;;;;27.80;18.17;;;;;;;15.52;57.51;98256.64;4156729;84;21025;-85
2022/03/29 11:23:45;;;;;;;28.83;17.42;;;;;;;15.56;57.33;98247.70;4161629;84;20999;-86
2022/03/29 11:29:47;;;;;;;26.00;18.70;;;;;;;15.56;57.36;98254.02;4158347;84;21041;-85
2022/03/29 11:35:53;;;;;;;27.35;18.67;;;;;;;15.62;57.07;98238.52;4166364;84;21164;-87
2022/03/29 11:41:56;;;;;;;33.17;20.80;;;;;;;15.74;56.68;98226.03;4161056;84;21037;-86
2022/03/29 11:48:01;;;;;;;30.92;18.98;;;;;;;15.65;56.40;98229.97;4149088;84;22307;-86
2022/03/29 11:54:02;;;;;;;29.18;19.42;;;;;;;15.67;56.54;98222.05;4143200;84;21108;-86
2022/03/29 12:00:24;;;;;;;30.32;19.65;;;;;;;15.73;56.01;98223.70;4169703;84;21050;-86
2022/03/29 12:06:55;;;;;;;42.53;20.88;;;;;;;15.64;55.81;98214.63;4163747;84;21047;-86
2022/03/29 12:12:57;;;;;;;29.63;19.30;;;;;;;15.32;55.65;98211.72;4144677;84;21112;-86
2022/03/29 12:19:08;;;;;;;32.08;22.35;;;;;;;15.07;55.83;98210.05;4103546;85;21017;-87
2022/03/29 12:25:10;;;;;;;31.80;21.05;;;;;;;15.19;55.76;98199.17;4167059;84;21109;-85
2022/03/29 12:31:13;;;;;;;31.97;21.70;;;;;;;15.32;55.78;98186.31;4107927;84;21074;-86
2022/03/29 12:37:16;;;;;;;32.73;23.12;;;;;;;15.48;56.02;98176.75;4091867;85;21106;-86
2022/03/29 12:43:23;;;;;;;34.65;22.40;;;;;;;15.57;55.63;98170.64;4072268;86;21034;-87
2022/03/29 12:49:35;;;;;;;32.33;22.22;;;;;;;15.30;55.66;98164.52;4068507;86;21101;-85
2022/03/29 12:55:38;;;;;;;35.23;23.87;;;;;;;15.38;55.91;98152.92;4064578;86;21629;-85
2022/03/29 13:01:42;;;;;;;34.30;23.65;;;;;;;15.48;55.97;98138.13;4072329;85;21165;-85
2022/03/29 13:07:50;;;;;;;33.42;23.52;;;;;;;15.66;55.73;98141.86;4095315;85;21120;-86
2022/03/29 13:14:04;;;;;;;32.45;21.60;;;;;;;15.88;55.78;98121.47;4092354;85;21081;-86
2022/03/29 13:20:07;;;;;;;31.48;21.87;;;;;;;16.03;55.28;98122.66;4092594;85;21137;-86
2022/03/29 13:26:11;;;;;;;33.02;22.52;;;;;;;16.00;54.90;98113.87;4079654;85;21133;-86
2022/03/29 13:32:15;;;;;;;31.33;19.37;;;;;;;15.92;54.76;98115.24;4134594;84;21114;-86
2022/03/29 13:38:27;;;;;;;28.70;19.87;;;;;;;15.93;54.52;98113.44;4165555;84;20984;-87
2022/03/29 13:44:37;;;;;;;30.30;20.88;;;;;;;15.88;54.42;98102.91;4166042;84;21028;-86
2022/03/29 13:50:59;;;;;;;34.78;20.80;;;;;;;15.76;54.02;98095.31;4167810;84;21052;-86
2022/03/29 14:03:43;;;;;;;29.07;20.17;;;;;;;15.63;53.34;98077.88;4094627;86;21002;-85
2022/03/29 14:09:49;;;;;;;29.57;21.17;;;;;;;15.63;53.27;98073.75;4094199;86;21072;-86
2022/03/29 14:15:52;;;;;;;36.83;21.05;;;;;;;15.47;53.45;98066.23;4109241;85;21683;-85
2022/03/29 14:21:53;;;;;;;30.65;19.90;;;;;;;15.50;53.43;98057.09;4175065;84;21096;-86
2022/03/29 14:27:54;;;;;;;33.18;20.32;;;;;;;15.54;53.33;98053.67;4176661;82;36300;-86
2022/03/29 14:33:57;;;;;;;32.83;19.98;;;;;;;15.42;53.25;98045.30;4185460;82;21555;-86
2022/03/29 14:39:59;;;;;;;48.10;26.65;;;;;;;15.29;53.43;98038.86;4183602;83;21046;-85
2022/03/29 14:46:16;;;;;;;27.98;18.98;;;;;;;15.20;53.26;98031.79;4179357;83;21622;-86
2022/03/29 14:52:19;;;;;;;43.45;26.10;;;;;;;15.14;53.32;98030.12;4185643;83;21233;-85
2022/03/29 14:58:22;;;;;;;42.15;24.50;;;;;;;15.02;53.39;98024.50;4180624;82;20980;-85
2022/03/29 15:04:49;;;;;;;33.53;20.17;;;;;;;15.05;53.32;98019.54;4168352;83;21099;-86
2022/03/29 15:10:50;;;;;;;29.80;19.07;;;;;;;14.97;53.34;98012.00;4179753;83;21101;-86
2022/03/29 15:16:51;;;;;;;29.72;20.50;;;;;;;14.91;53.38;98009.58;4181706;83;21071;-87
2022/03/29 15:22:53;;;;;;;35.78;21.25;;;;;;;14.93;53.54;98009.94;4180845;83;21056;-86
2022/03/29 15:28:54;;;;;;;32.75;21.05;;;;;;;14.75;53.47;98006.77;4183519;83;21011;-86
2022/03/29 15:34:55;;;;;;;29.80;19.80;;;;;;;14.73;53.43;98001.53;4198623;83;21035;-85
2022/03/29 15:40:56;;;;;;;34.98;21.70;;;;;;;14.59;53.82;98007.33;4197906;83;21015;-85
2022/03/29 15:46:58;;;;;;;33.05;20.02;;;;;;;14.50;53.99;97996.87;4193706;83;21068;-85
2022/03/29 15:52:59;;;;;;;32.40;20.12;;;;;;;14.32;53.95;97991.55;4196502;83;20993;-85
2022/03/29 15:59:00;;;;;;;45.10;26.17;;;;;;;14.15;53.97;97992.84;4192205;83;21062;-85
2022/03/29 16:11:19;;;;;;;35.25;21.82;;;;;;;13.81;54.18;97980.50;4164993;81;10000372;-86
2022/03/29 16:17:26;;;;;;;34.65;20.85;;;;;;;13.67;54.38;97973.26;4272429;82;21144;-86
2022/03/29 16:23:26;;;;;;;52.55;30.82;;;;;;;13.56;54.57;97977.41;4261323;82;21065;-87
2022/03/29 16:29:27;;;;;;;57.10;31.02;;;;;;;13.42;54.79;97974.89;4273010;82;21110;-87
2022/03/29 16:35:28;;;;;;;65.47;32.73;;;;;;;13.27;54.88;97968.05;4288998;82;21046;-87
2022/03/29 16:41:33;;;;;;;68.78;35.43;;;;;;;13.07;55.12;97966.61;4295086;82;21046;-86
2022/03/29 16:47:35;;;;;;;40.52;24.32;;;;;;;12.88;55.33;97960.38;4171780;84;21949;-87
2022/03/29 16:53:39;;;;;;;50.23;28.95;;;;;;;12.72;55.65;97959.45;4291498;82;20955;-87
2022/03/29 16:59:40;;;;;;;49.18;26.33;;;;;;;12.58;55.92;97968.05;4279335;82;21069;-86
2022/03/29 17:05:42;;;;;;;49.73;26.77;;;;;;;12.46;56.21;97974.09;4087081;82;10000457;-86
2022/03/29 17:11:43;;;;;;;42.60;25.23;;;;;;;12.28;56.29;97970.78;4281897;80;21609;-87
2022/03/29 17:17:44;;;;;;;46.88;25.92;;;;;;;11.92;56.91;97969.62;4276113;81;21027;-86
2022/03/29 17:23:46;;;;;;;45.20;24.92;;;;;;;11.85;57.45;97968.34;4295130;81;22073;-86
2022/03/29 17:29:47;;;;;;;45.75;25.68;;;;;;;11.74;57.42;97968.25;4315226;80;21967;-87
2022/03/29 17:35:48;;;;;;;44.48;23.50;;;;;;;11.55;58.13;97975.05;4312104;81;21007;-86
2022/03/29 17:41:49;;;;;;;36.63;21.50;;;;;;;11.28;58.22;97968.63;4312580;81;21006;-87
2022/03/29 17:48:12;;;;;;;40.20;22.42;;;;;;;11.19;58.86;97979.27;4297396;81;20999;-87
2022/03/29 17:54:14;;;;;;;42.27;21.42;;;;;;;11.22;59.53;97985.89;4299755;81;20962;-87
2022/03/29 18:00:18;;;;;;;42.78;23.15;;;;;;;11.19;59.65;97995.70;4303101;81;21565;-86
2022/03/29 18:06:22;;;;;;;40.38;23.05;;;;;;;11.08;59.58;97985.41;4312802;81;20977;-86
2022/03/29 18:12:24;;;;;;;42.55;24.15;;;;;;;10.90;59.93;97987.47;4295436;81;20987;-86
2022/03/29 18:18:25;;;;;;;42.03;24.40;;;;;;;10.81;60.57;97989.30;4281764;82;21210;-87
2022/03/29 18:24:27;;;;;;;47.50;25.65;;;;;;;10.71;60.12;97986.02;4272739;82;21502;-86
2022/03/29 18:30:28;;;;;;;48.85;28.38;;;;;;;10.59;60.68;97990.59;4287756;81;20995;-86
2022/03/29 18:36:30;;;;;;;50.65;27.87;;;;;;;10.49;60.07;97990.65;4287831;81;20998;-86
2022/03/29 18:42:31;;;;;;;57.98;27.62;;;;;;;10.46;59.72;97996.92;4292018;82;21514;-85
2022/03/29 18:48:33;;;;;;;61.23;29.52;;;;;;;10.44;59.43;97992.42;4286084;80;20983;-86
2022/03/29 18:54:34;;;;;;;42.65;22.90;;;;;;;10.37;59.32;98005.54;4288381;82;21909;-86
2022/03/29 19:00:36;;;;;;;43.28;23.70;;;;;;;10.30;59.69;98026.09;4175952;81;10000384;-86
2022/03/29 19:06:45;;;;;;;39.83;23.27;;;;;;;10.32;59.73;98031.17;4272360;82;21018;-86
2022/03/29 19:12:47;;;;;;;53.33;25.50;;;;;;;10.32;59.91;98010.05;4303918;80;21015;-86
2022/03/29 19:18:49;;;;;;;53.95;27.15;;;;;;;10.23;59.49;98015.16;4293758;81;21055;-86
2022/03/29 19:24:53;;;;;;;42.30;22.32;;;;;;;10.16;59.34;98028.88;4310187;80;21026;-86
2022/03/29 19:30:55;;;;;;;53.45;25.90;;;;;;;10.07;59.63;98040.79;4278064;81;21858;-86
2022/03/29 19:36:56;;;;;;;28.47;16.50;;;;;;;9.96;60.13;98048.20;4295996;81;21015;-86
2022/03/29 19:43:36;;;;;;;39.78;17.82;;;;;;;9.80;60.52;98041.59;4295968;81;20995;-86
2022/03/29 19:49:55;;;;;;;30.15;16.95;;;;;;;9.62;61.36;98057.20;4293445;81;21454;-86
2022/03/29 19:55:56;;;;;;;44.90;21.10;;;;;;;9.50;61.69;98063.28;4300869;80;21923;-85
2022/03/29 20:01:58;;;;;;;53.65;21.57;;;;;;;9.39;62.53;98061.70;4297589;81;21018;-85
2022/03/29 20:07:59;;;;;;;34.08;18.70;;;;;;;9.19;62.56;98040.03;4297843;80;20986;-85
2022/03/29 20:14:01;;;;;;;46.58;23.42;;;;;;;9.06;62.69;98038.84;4303639;81;21051;-86
2022/03/29 20:20:03;;;;;;;66.72;25.37;;;;;;;8.93;63.26;98056.16;4271250;82;21016;-86
2022/03/29 20:26:11;;;;;;;39.08;21.57;;;;;;;8.87;63.70;98061.80;4265740;81;20996;-86
2022/03/29 20:32:13;;;;;;;52.03;24.37;;;;;;;8.85;64.24;98048.33;4269289;81;21020;-86
2022/03/29 20:38:15;;;;;;;37.15;21.40;;;;;;;8.77;64.92;98057.08;4268898;81;21048;-86
2022/03/29 20:44:17;;;;;;;47.27;24.72;;;;;;;8.69;66.08;98079.28;4284986;81;21977;-86
2022/03/29 20:50:29;;;;;;;40.20;23.62;;;;;;;8.58;66.79;98086.04;4280902;81;20989;-86
2022/03/29 20:56:31;;;;;;;44.35;24.98;;;;;;;8.53;67.66;98084.27;4274689;81;20996;-86
2022/03/29 21:02:34;;;;;;;47.38;27.55;;;;;;;8.47;67.74;98079.75;4285142;81;21100;-86
2022/03/29 21:08:36;;;;;;;57.62;30.52;;;;;;;8.36;68.45;98084.97;4257272;82;21509;-86
2022/03/29 21:14:37;;;;;;;75.08;31.00;;;;;;;8.18;68.66;98097.67;4281098;81;21061;-86
2022/03/29 21:20:40;;;;;;;52.45;28.57;;;;;;;8.06;68.96;98093.91;4314563;80;21353;-87
2022/03/29 21:26:42;;;;;;;46.23;25.68;;;;;;;8.08;69.67;98101.14;4313164;81;21026;-87
2022/03/29 21:32:43;;;;;;;45.17;26.30;;;;;;;8.11;71.12;98106.62;4303576;81;21377;-86
2022/03/29 21:38:44;;;;;;;41.88;26.10;;;;;;;8.12;70.74;98110.11;4291238;81;21031;-87
2022/03/29 21:44:46;;;;;;;46.77;25.60;;;;;;;8.19;71.03;98108.20;4267850;81;21074;-87
2022/03/29 21:50:52;;;;;;;43.42;24.92;;;;;;;8.22;71.09;98112.92;4317377;80;21041;-87
2022/03/29 21:57:12;;;;;;;40.73;24.87;;;;;;;8.31;71.15;98117.48;4317775;81;21061;-87
2022/03/29 22:03:31;;;;;;;45.83;26.65;;;;;;;8.35;71.10;98120.23;4283747;81;21027;-87
2022/03/29 22:09:52;;;;;;;43.60;25.88;;;;;;;8.35;71.12;98113.41;4308666;80;21002;-87
2022/03/29 22:15:54;;;;;;;44.15;24.45;;;;;;;8.27;71.29;98111.20;4290527;80;21058;-87
2022/03/29 22:21:56;;;;;;;43.98;25.80;;;;;;;8.16;71.40;98114.41;4301018;82;21521;-86
2022/03/29 22:28:00;;;;;;;49.40;28.42;;;;;;;7.95;71.48;98112.92;4292565;82;20990;-87
2022/03/29 22:34:01;;;;;;;54.18;29.77;;;;;;;7.81;71.43;98114.94;4285505;80;21010;-87
2022/03/29 22:40:05;;;;;;;47.35;26.23;;;;;;;7.63;71.95;98107.22;4287416;81;21480;-86
2022/03/29 22:46:07;;;;;;;48.45;27.62;;;;;;;7.50;72.38;98111.37;4298185;81;21583;-87
2022/03/29 22:52:09;;;;;;;50.67;27.65;;;;;;;7.19;73.16;98123.31;4292249;82;21036;-87
2022/03/29 22:58:10;;;;;;;53.28;29.23;;;;;;;7.30;73.45;98118.76;4289634;82;21069;-86
2022/03/29 23:04:11;;;;;;;44.67;25.30;;;;;;;7.32;73.57;98117.81;4289494;82;21031;-87
2022/03/29 23:10:13;;;;;;;45.55;26.55;;;;;;;7.41;73.79;98123.16;4297630;82;21065;-86
2022/03/29 23:16:15;;;;;;;55.85;30.40;;;;;;;7.61;73.88;98126.47;4285781;82;21009;-87
2022/03/29 23:22:16;;;;;;;59.03;31.00;;;;;;;7.64;73.76;98121.03;4293509;82;21068;-86
2022/03/29 23:28:18;;;;;;;54.90;32.20;;;;;;;7.58;73.85;98111.64;4283527;82;21017;-86
2022/03/29 23:34:20;;;;;;;63.02;31.15;;;;;;;7.61;73.90;98104.08;4298196;82;21042;-86
2022/03/29 23:40:21;;;;;;;59.50;32.67;;;;;;;7.41;73.59;98106.83;4298975;82;21085;-86
2022/03/29 23:46:22;;;;;;;57.60;28.52;;;;;;;7.33;74.11;98105.78;4289997;80;21108;-86
2022/03/29 23:52:23;;;;;;;57.23;32.42;;;;;;;7.37;74.52;98105.23;4296910;80;21094;-87
2022/03/29 23:58:25;;;;;;;62.27;31.40;;;;;;;7.45;74.30;98101.42;4298070;81;21051;-86
